sensor_id;sensor_type;location;lat;lon;timestamp;temperature;humidity
30949;HTU21D;17637;51.984;21.208;2022-07-23T00:01:24;21.72;10.44
30949;HTU21D;17637;51.984;21.208;2022-07-23T00:06:29;21.50;11.43
30949;HTU21D;17637;51.984;21.208;2022-07-23T00:11:32;21.43;11.78
30949;HTU21D;17637;51.984;21.208;2022-07-23T00:16:37;21.32;12.08
30949;HTU21D;17637;51.984;21.208;2022-07-23T00:21:40;21.22;12.00
30949;HTU21D;17637;51.984;21.208;2022-07-23T00:26:43;21.11;12.18
30949;HTU21D;17637;51.984;21.208;2022-07-23T00:31:47;21.00;12.10
30949;HTU21D;17637;51.984;21.208;2022-07-23T00:36:50;20.96;12.10
30949;HTU21D;17637;51.984;21.208;2022-07-23T00:41:56;20.89;12.10
30949;HTU21D;17637;51.984;21.208;2022-07-23T00:47:00;20.86;12.34
30949;HTU21D;17637;51.984;21.208;2022-07-23T00:52:04;20.79;11.99
30949;HTU21D;17637;51.984;21.208;2022-07-23T00:57:09;20.70;11.78
30949;HTU21D;17637;51.984;21.208;2022-07-23T01:02:13;20.63;11.97
30949;HTU21D;17637;51.984;21.208;2022-07-23T01:07:17;20.45;11.88
30949;HTU21D;17637;51.984;21.208;2022-07-23T01:12:21;20.51;11.26
30949;HTU21D;17637;51.984;21.208;2022-07-23T01:17:26;20.45;11.20
30949;HTU21D;17637;51.984;21.208;2022-07-23T01:22:31;20.36;11.16
30949;HTU21D;17637;51.984;21.208;2022-07-23T01:27:36;20.26;11.01
30949;HTU21D;17637;51.984;21.208;2022-07-23T01:32:39;20.22;11.07
30949;HTU21D;17637;51.984;21.208;2022-07-23T01:37:44;20.13;11.00
30949;HTU21D;17637;51.984;21.208;2022-07-23T01:42:47;20.06;10.57
30949;HTU21D;17637;51.984;21.208;2022-07-23T01:47:50;19.92;9.75
30949;HTU21D;17637;51.984;21.208;2022-07-23T01:52:55;20.01;9.44
30949;HTU21D;17637;51.984;21.208;2022-07-23T01:57:59;19.89;9.42
30949;HTU21D;17637;51.984;21.208;2022-07-23T02:03:02;19.86;9.08
30949;HTU21D;17637;51.984;21.208;2022-07-23T02:08:07;19.85;8.81
30949;HTU21D;17637;51.984;21.208;2022-07-23T02:13:10;19.79;8.86
30949;HTU21D;17637;51.984;21.208;2022-07-23T02:18:20;19.80;9.11
30949;HTU21D;17637;51.984;21.208;2022-07-23T02:23:24;19.70;8.66
30949;HTU21D;17637;51.984;21.208;2022-07-23T02:28:27;19.61;8.47
30949;HTU21D;17637;51.984;21.208;2022-07-23T02:33:30;19.51;8.69
30949;HTU21D;17637;51.984;21.208;2022-07-23T02:38:36;19.62;8.21
30949;HTU21D;17637;51.984;21.208;2022-07-23T02:43:38;19.55;8.44
30949;HTU21D;17637;51.984;21.208;2022-07-23T02:48:42;19.46;8.31
30949;HTU21D;17637;51.984;21.208;2022-07-23T02:53:47;19.54;8.00
30949;HTU21D;17637;51.984;21.208;2022-07-23T02:58:50;19.60;8.04
30949;HTU21D;17637;51.984;21.208;2022-07-23T03:03:53;19.65;8.27
30949;HTU21D;17637;51.984;21.208;2022-07-23T03:08:58;19.62;8.17
30949;HTU21D;17637;51.984;21.208;2022-07-23T03:14:02;19.59;8.33
30949;HTU21D;17637;51.984;21.208;2022-07-23T03:19:05;19.65;8.10
30949;HTU21D;17637;51.984;21.208;2022-07-23T03:24:10;19.66;8.07
30949;HTU21D;17637;51.984;21.208;2022-07-23T03:29:13;19.77;8.14
30949;HTU21D;17637;51.984;21.208;2022-07-23T03:34:16;19.77;8.24
30949;HTU21D;17637;51.984;21.208;2022-07-23T03:39:22;19.97;8.34
30949;HTU21D;17637;51.984;21.208;2022-07-23T03:44:25;19.90;8.61
30949;HTU21D;17637;51.984;21.208;2022-07-23T03:49:29;20.10;8.47
30949;HTU21D;17637;51.984;21.208;2022-07-23T03:54:34;20.13;8.72
30949;HTU21D;17637;51.984;21.208;2022-07-23T03:59:37;20.36;9.13
30949;HTU21D;17637;51.984;21.208;2022-07-23T04:04:40;20.43;8.98
30949;HTU21D;17637;51.984;21.208;2022-07-23T04:09:45;20.71;9.27
30949;HTU21D;17637;51.984;21.208;2022-07-23T04:14:48;20.87;9.50
30949;HTU21D;17637;51.984;21.208;2022-07-23T04:19:51;20.99;9.46
30949;HTU21D;17637;51.984;21.208;2022-07-23T04:24:56;21.33;9.44
30949;HTU21D;17637;51.984;21.208;2022-07-23T04:29:59;21.58;8.66
30949;HTU21D;17637;51.984;21.208;2022-07-23T04:35:02;21.62;9.56
30949;HTU21D;17637;51.984;21.208;2022-07-23T04:40:09;21.80;7.80
30949;HTU21D;17637;51.984;21.208;2022-07-23T04:45:14;21.98;8.09
30949;HTU21D;17637;51.984;21.208;2022-07-23T04:50:17;22.01;7.66
30949;HTU21D;17637;51.984;21.208;2022-07-23T04:55:25;22.10;7.85
30949;HTU21D;17637;51.984;21.208;2022-07-23T05:00:28;22.29;7.27
30949;HTU21D;17637;51.984;21.208;2022-07-23T05:05:31;22.41;6.79
30949;HTU21D;17637;51.984;21.208;2022-07-23T05:10:36;23.13;3.96
30949;HTU21D;17637;51.984;21.208;2022-07-23T05:15:39;23.38;1.51
30949;HTU21D;17637;51.984;21.208;2022-07-23T05:20:43;23.56;0.39
30949;HTU21D;17637;51.984;21.208;2022-07-23T05:25:47;23.92;-1.91
30949;HTU21D;17637;51.984;21.208;2022-07-23T05:30:50;24.50;-4.05
30949;HTU21D;17637;51.984;21.208;2022-07-23T05:35:53;24.75;117.99
30949;HTU21D;17637;51.984;21.208;2022-07-23T05:40:58;24.82;114.93
30949;HTU21D;17637;51.984;21.208;2022-07-23T05:46:02;25.03;114.16
30949;HTU21D;17637;51.984;21.208;2022-07-23T05:51:05;25.15;112.09
30949;HTU21D;17637;51.984;21.208;2022-07-23T05:56:10;25.42;110.60
30949;HTU21D;17637;51.984;21.208;2022-07-23T06:01:13;25.44;112.75
30949;HTU21D;17637;51.984;21.208;2022-07-23T06:06:17;25.92;107.05
30949;HTU21D;17637;51.984;21.208;2022-07-23T06:11:21;25.91;106.96
30949;HTU21D;17637;51.984;21.208;2022-07-23T06:16:24;26.33;106.40
30949;HTU21D;17637;51.984;21.208;2022-07-23T06:21:28;26.37;102.51
30949;HTU21D;17637;51.984;21.208;2022-07-23T06:26:50;26.64;101.84
30949;HTU21D;17637;51.984;21.208;2022-07-23T06:31:53;26.47;100.05
30949;HTU21D;17637;51.984;21.208;2022-07-23T06:36:56;26.60;99.76
30949;HTU21D;17637;51.984;21.208;2022-07-23T06:42:02;26.95;97.06
30949;HTU21D;17637;51.984;21.208;2022-07-23T06:47:05;27.01;97.51
30949;HTU21D;17637;51.984;21.208;2022-07-23T06:52:09;26.84;94.88
30949;HTU21D;17637;51.984;21.208;2022-07-23T06:57:13;26.89;95.82
30949;HTU21D;17637;51.984;21.208;2022-07-23T07:02:16;27.23;92.84
30949;HTU21D;17637;51.984;21.208;2022-07-23T07:07:20;27.46;93.04
30949;HTU21D;17637;51.984;21.208;2022-07-23T07:12:24;27.61;92.72
30949;HTU21D;17637;51.984;21.208;2022-07-23T07:17:27;28.03;91.83
30949;HTU21D;17637;51.984;21.208;2022-07-23T07:22:30;28.05;93.18
30949;HTU21D;17637;51.984;21.208;2022-07-23T07:27:34;28.21;89.60
30949;HTU21D;17637;51.984;21.208;2022-07-23T07:32:38;28.50;93.46
30949;HTU21D;17637;51.984;21.208;2022-07-23T07:37:58;28.61;89.17
30949;HTU21D;17637;51.984;21.208;2022-07-23T07:43:03;28.75;90.24
30949;HTU21D;17637;51.984;21.208;2022-07-23T07:48:06;28.77;86.92
30949;HTU21D;17637;51.984;21.208;2022-07-23T07:53:09;29.18;85.00
30949;HTU21D;17637;51.984;21.208;2022-07-23T07:58:14;28.95;82.38
30949;HTU21D;17637;51.984;21.208;2022-07-23T08:03:17;29.19;83.60
30949;HTU21D;17637;51.984;21.208;2022-07-23T08:08:21;29.47;85.44
30949;HTU21D;17637;51.984;21.208;2022-07-23T08:13:25;29.61;80.83
30949;HTU21D;17637;51.984;21.208;2022-07-23T08:18:29;29.88;84.67
30949;HTU21D;17637;51.984;21.208;2022-07-23T08:23:32;29.98;83.18
30949;HTU21D;17637;51.984;21.208;2022-07-23T08:28:37;29.98;77.40
30949;HTU21D;17637;51.984;21.208;2022-07-23T08:33:40;30.15;78.27
30949;HTU21D;17637;51.984;21.208;2022-07-23T08:38:42;29.54;74.06
30949;HTU21D;17637;51.984;21.208;2022-07-23T08:43:47;29.61;74.60
30949;HTU21D;17637;51.984;21.208;2022-07-23T08:48:50;30.30;77.34
30949;HTU21D;17637;51.984;21.208;2022-07-23T08:53:56;30.47;70.29
30949;HTU21D;17637;51.984;21.208;2022-07-23T08:59:01;30.19;69.42
30949;HTU21D;17637;51.984;21.208;2022-07-23T09:04:05;30.69;70.58
30949;HTU21D;17637;51.984;21.208;2022-07-23T09:09:16;30.68;70.87
30949;HTU21D;17637;51.984;21.208;2022-07-23T09:14:35;30.67;71.58
30949;HTU21D;17637;51.984;21.208;2022-07-23T09:19:40;30.84;72.96
30949;HTU21D;17637;51.984;21.208;2022-07-23T09:25:09;29.72;69.61
30949;HTU21D;17637;51.984;21.208;2022-07-23T09:30:16;30.32;71.33
30949;HTU21D;17637;51.984;21.208;2022-07-23T09:35:43;30.18;68.35
30949;HTU21D;17637;51.984;21.208;2022-07-23T09:41:05;30.63;73.04
30949;HTU21D;17637;51.984;21.208;2022-07-23T09:46:22;30.68;70.40
30949;HTU21D;17637;51.984;21.208;2022-07-23T09:51:28;30.70;69.51
30949;HTU21D;17637;51.984;21.208;2022-07-23T09:56:39;31.13;70.71
30949;HTU21D;17637;51.984;21.208;2022-07-23T10:01:45;30.82;68.42
30949;HTU21D;17637;51.984;21.208;2022-07-23T10:06:48;31.14;67.79
30949;HTU21D;17637;51.984;21.208;2022-07-23T10:11:57;31.27;68.23
30949;HTU21D;17637;51.984;21.208;2022-07-23T10:17:06;31.36;65.03
30949;HTU21D;17637;51.984;21.208;2022-07-23T10:22:11;31.35;68.22
30949;HTU21D;17637;51.984;21.208;2022-07-23T10:27:30;31.50;69.09
30949;HTU21D;17637;51.984;21.208;2022-07-23T10:32:45;31.66;66.77
30949;HTU21D;17637;51.984;21.208;2022-07-23T10:37:53;31.72;67.29
30949;HTU21D;17637;51.984;21.208;2022-07-23T10:42:59;31.25;63.01
30949;HTU21D;17637;51.984;21.208;2022-07-23T10:48:16;31.50;63.46
30949;HTU21D;17637;51.984;21.208;2022-07-23T10:53:20;31.73;66.90
30949;HTU21D;17637;51.984;21.208;2022-07-23T10:58:47;31.65;66.92
30949;HTU21D;17637;51.984;21.208;2022-07-23T11:03:57;31.81;63.95
30949;HTU21D;17637;51.984;21.208;2022-07-23T11:09:23;31.06;63.11
30949;HTU21D;17637;51.984;21.208;2022-07-23T11:15:00;31.25;62.61
30949;HTU21D;17637;51.984;21.208;2022-07-23T11:20:16;31.53;66.17
30949;HTU21D;17637;51.984;21.208;2022-07-23T11:25:34;31.79;62.22
30949;HTU21D;17637;51.984;21.208;2022-07-23T11:30:42;31.13;61.73
30949;HTU21D;17637;51.984;21.208;2022-07-23T11:35:49;31.49;61.92
30949;HTU21D;17637;51.984;21.208;2022-07-23T11:41:02;31.25;63.58
30949;HTU21D;17637;51.984;21.208;2022-07-23T11:46:09;31.27;61.23
30949;HTU21D;17637;51.984;21.208;2022-07-23T11:51:24;31.70;63.74
30949;HTU21D;17637;51.984;21.208;2022-07-23T11:56:27;31.96;61.86
30949;HTU21D;17637;51.984;21.208;2022-07-23T12:01:31;31.92;62.58
30949;HTU21D;17637;51.984;21.208;2022-07-23T12:06:39;32.05;65.21
30949;HTU21D;17637;51.984;21.208;2022-07-23T12:11:56;31.80;64.29
30949;HTU21D;17637;51.984;21.208;2022-07-23T12:17:10;31.54;61.34
30949;HTU21D;17637;51.984;21.208;2022-07-23T12:22:14;31.84;60.64
30949;HTU21D;17637;51.984;21.208;2022-07-23T12:27:20;32.10;62.62
30949;HTU21D;17637;51.984;21.208;2022-07-23T12:32:25;32.22;61.02
30949;HTU21D;17637;51.984;21.208;2022-07-23T12:37:32;31.67;59.92
30949;HTU21D;17637;51.984;21.208;2022-07-23T12:42:41;31.89;59.09
30949;HTU21D;17637;51.984;21.208;2022-07-23T12:48:00;31.81;59.93
30949;HTU21D;17637;51.984;21.208;2022-07-23T12:53:08;32.07;62.02
30949;HTU21D;17637;51.984;21.208;2022-07-23T12:58:41;32.13;60.67
30949;HTU21D;17637;51.984;21.208;2022-07-23T13:03:55;32.05;63.02
30949;HTU21D;17637;51.984;21.208;2022-07-23T13:09:03;32.29;61.73
30949;HTU21D;17637;51.984;21.208;2022-07-23T13:14:07;32.45;63.08
30949;HTU21D;17637;51.984;21.208;2022-07-23T13:19:11;32.32;60.86
30949;HTU21D;17637;51.984;21.208;2022-07-23T13:24:16;32.20;59.69
30949;HTU21D;17637;51.984;21.208;2022-07-23T13:29:19;32.41;59.44
30949;HTU21D;17637;51.984;21.208;2022-07-23T13:34:23;32.14;59.42
30949;HTU21D;17637;51.984;21.208;2022-07-23T13:39:28;32.67;65.17
30949;HTU21D;17637;51.984;21.208;2022-07-23T13:44:39;32.98;62.25
30949;HTU21D;17637;51.984;21.208;2022-07-23T13:49:42;32.99;60.82
30949;HTU21D;17637;51.984;21.208;2022-07-23T13:54:47;32.99;57.48
30949;HTU21D;17637;51.984;21.208;2022-07-23T13:59:51;33.12;59.13
30949;HTU21D;17637;51.984;21.208;2022-07-23T14:04:54;32.76;57.93
30949;HTU21D;17637;51.984;21.208;2022-07-23T14:09:59;32.58;59.18
30949;HTU21D;17637;51.984;21.208;2022-07-23T14:15:03;32.24;59.93
30949;HTU21D;17637;51.984;21.208;2022-07-23T14:20:14;31.60;60.12
30949;HTU21D;17637;51.984;21.208;2022-07-23T14:25:21;31.48;61.65
30949;HTU21D;17637;51.984;21.208;2022-07-23T14:30:25;31.40;60.64
30949;HTU21D;17637;51.984;21.208;2022-07-23T14:35:38;31.20;61.94
30949;HTU21D;17637;51.984;21.208;2022-07-23T14:40:43;31.16;62.04
30949;HTU21D;17637;51.984;21.208;2022-07-23T14:45:47;31.11;63.36
30949;HTU21D;17637;51.984;21.208;2022-07-23T14:50:51;30.94;64.09
30949;HTU21D;17637;51.984;21.208;2022-07-23T14:55:55;30.76;66.16
30949;HTU21D;17637;51.984;21.208;2022-07-23T15:01:01;30.32;68.03
30949;HTU21D;17637;51.984;21.208;2022-07-23T15:06:05;26.95;82.36
30949;HTU21D;17637;51.984;21.208;2022-07-23T15:11:09;26.10;90.76
30949;HTU21D;17637;51.984;21.208;2022-07-23T15:16:13;25.30;96.46
30949;HTU21D;17637;51.984;21.208;2022-07-23T15:21:16;25.04;100.61
30949;HTU21D;17637;51.984;21.208;2022-07-23T15:26:21;24.42;108.41
30949;HTU21D;17637;51.984;21.208;2022-07-23T15:31:25;24.01;111.97
30949;HTU21D;17637;51.984;21.208;2022-07-23T15:36:30;23.53;118.67
30949;HTU21D;17637;51.984;21.208;2022-07-23T15:41:35;23.06;4.54
30949;HTU21D;17637;51.984;21.208;2022-07-23T15:46:38;22.41;10.40
30949;HTU21D;17637;51.984;21.208;2022-07-23T15:51:41;21.92;10.82
30949;HTU21D;17637;51.984;21.208;2022-07-23T15:56:50;21.68;11.15
30949;HTU21D;17637;51.984;21.208;2022-07-23T16:01:53;21.25;8.96
30949;HTU21D;17637;51.984;21.208;2022-07-23T16:06:56;20.60;10.03
30949;HTU21D;17637;51.984;21.208;2022-07-23T16:12:01;19.95;8.43
30949;HTU21D;17637;51.984;21.208;2022-07-23T16:17:05;19.83;7.18
30949;HTU21D;17637;51.984;21.208;2022-07-23T16:22:08;19.58;6.51
30949;HTU21D;17637;51.984;21.208;2022-07-23T16:27:14;19.46;5.78
30949;HTU21D;17637;51.984;21.208;2022-07-23T16:32:17;19.54;5.71
30949;HTU21D;17637;51.984;21.208;2022-07-23T16:37:20;19.67;4.78
30949;HTU21D;17637;51.984;21.208;2022-07-23T16:42:25;19.67;4.75
30949;HTU21D;17637;51.984;21.208;2022-07-23T16:47:29;19.66;4.48
30949;HTU21D;17637;51.984;21.208;2022-07-23T16:52:32;19.67;3.27
30949;HTU21D;17637;51.984;21.208;2022-07-23T16:57:36;19.66;2.81
30949;HTU21D;17637;51.984;21.208;2022-07-23T17:02:40;19.73;3.04
30949;HTU21D;17637;51.984;21.208;2022-07-23T17:07:43;19.79;3.35
30949;HTU21D;17637;51.984;21.208;2022-07-23T17:12:49;19.73;2.85
30949;HTU21D;17637;51.984;21.208;2022-07-23T17:17:53;19.89;2.84
30949;HTU21D;17637;51.984;21.208;2022-07-23T17:22:59;20.02;1.91
30949;HTU21D;17637;51.984;21.208;2022-07-23T17:28:04;20.09;1.85
30949;HTU21D;17637;51.984;21.208;2022-07-23T17:33:07;20.16;1.11
30949;HTU21D;17637;51.984;21.208;2022-07-23T17:38:10;20.21;0.95
30949;HTU21D;17637;51.984;21.208;2022-07-23T17:43:15;20.32;-0.03
30949;HTU21D;17637;51.984;21.208;2022-07-23T17:48:19;20.44;-0.60
30949;HTU21D;17637;51.984;21.208;2022-07-23T17:53:24;20.53;-0.48
30949;HTU21D;17637;51.984;21.208;2022-07-23T17:58:30;20.55;-0.91
30949;HTU21D;17637;51.984;21.208;2022-07-23T18:03:33;20.58;-0.69
30949;HTU21D;17637;51.984;21.208;2022-07-23T18:08:36;20.54;-0.51
30949;HTU21D;17637;51.984;21.208;2022-07-23T18:13:41;20.45;-1.08
30949;HTU21D;17637;51.984;21.208;2022-07-23T18:18:48;20.36;-1.31
30949;HTU21D;17637;51.984;21.208;2022-07-23T18:23:51;20.43;-1.02
30949;HTU21D;17637;51.984;21.208;2022-07-23T18:28:56;20.28;-0.94
30949;HTU21D;17637;51.984;21.208;2022-07-23T18:33:59;20.22;-0.26
30949;HTU21D;17637;51.984;21.208;2022-07-23T18:39:03;20.12;-0.17
30949;HTU21D;17637;51.984;21.208;2022-07-23T18:44:08;20.11;-0.09
30949;HTU21D;17637;51.984;21.208;2022-07-23T18:49:12;20.13;0.46
30949;HTU21D;17637;51.984;21.208;2022-07-23T18:54:15;20.01;0.13
30949;HTU21D;17637;51.984;21.208;2022-07-23T18:59:20;20.00;-0.16
30949;HTU21D;17637;51.984;21.208;2022-07-23T19:04:25;20.02;-0.32
30949;HTU21D;17637;51.984;21.208;2022-07-23T19:09:29;19.88;0.05
30949;HTU21D;17637;51.984;21.208;2022-07-23T19:14:36;19.77;-0.00
30949;HTU21D;17637;51.984;21.208;2022-07-23T19:19:40;19.79;0.07
30949;HTU21D;17637;51.984;21.208;2022-07-23T19:24:43;19.65;0.26
30949;HTU21D;17637;51.984;21.208;2022-07-23T19:29:49;19.62;0.01
30949;HTU21D;17637;51.984;21.208;2022-07-23T19:34:52;19.66;-0.09
30949;HTU21D;17637;51.984;21.208;2022-07-23T19:39:56;19.61;-0.09
30949;HTU21D;17637;51.984;21.208;2022-07-23T19:45:00;19.54;0.20
30949;HTU21D;17637;51.984;21.208;2022-07-23T19:50:04;19.59;0.27
30949;HTU21D;17637;51.984;21.208;2022-07-23T19:55:08;19.61;0.13
30949;HTU21D;17637;51.984;21.208;2022-07-23T20:00:16;19.65;0.38
30949;HTU21D;17637;51.984;21.208;2022-07-23T20:05:19;19.62;0.43
30949;HTU21D;17637;51.984;21.208;2022-07-23T20:10:23;19.57;1.20
30949;HTU21D;17637;51.984;21.208;2022-07-23T20:15:28;19.30;1.33
30949;HTU21D;17637;51.984;21.208;2022-07-23T20:20:31;19.39;1.13
30949;HTU21D;17637;51.984;21.208;2022-07-23T20:25:34;19.50;1.20
30949;HTU21D;17637;51.984;21.208;2022-07-23T20:30:39;19.50;1.03
30949;HTU21D;17637;51.984;21.208;2022-07-23T20:35:43;19.39;1.34
30949;HTU21D;17637;51.984;21.208;2022-07-23T20:40:46;19.33;1.19
30949;HTU21D;17637;51.984;21.208;2022-07-23T20:45:51;19.28;1.25
30949;HTU21D;17637;51.984;21.208;2022-07-23T20:50:56;19.29;1.13
30949;HTU21D;17637;51.984;21.208;2022-07-23T20:55:58;19.37;1.45
30949;HTU21D;17637;51.984;21.208;2022-07-23T21:01:04;19.25;1.15
30949;HTU21D;17637;51.984;21.208;2022-07-23T21:06:07;19.31;1.12
30949;HTU21D;17637;51.984;21.208;2022-07-23T21:11:12;19.29;1.01
30949;HTU21D;17637;51.984;21.208;2022-07-23T21:16:17;19.31;1.33
30949;HTU21D;17637;51.984;21.208;2022-07-23T21:21:20;19.32;0.41
30949;HTU21D;17637;51.984;21.208;2022-07-23T21:26:23;19.45;0.52
30949;HTU21D;17637;51.984;21.208;2022-07-23T21:31:36;19.39;0.53
30949;HTU21D;17637;51.984;21.208;2022-07-23T21:36:39;19.40;0.52
30949;HTU21D;17637;51.984;21.208;2022-07-23T21:41:43;19.41;0.20
30949;HTU21D;17637;51.984;21.208;2022-07-23T21:46:48;19.43;0.45
30949;HTU21D;17637;51.984;21.208;2022-07-23T21:51:51;19.45;0.18
30949;HTU21D;17637;51.984;21.208;2022-07-23T21:56:54;19.48;0.58
30949;HTU21D;17637;51.984;21.208;2022-07-23T22:01:59;19.50;1.64
30949;HTU21D;17637;51.984;21.208;2022-07-23T22:07:04;19.60;0.44
30949;HTU21D;17637;51.984;21.208;2022-07-23T22:12:07;19.66;0.22
30949;HTU21D;17637;51.984;21.208;2022-07-23T22:17:12;19.82;-0.83
30949;HTU21D;17637;51.984;21.208;2022-07-23T22:22:15;19.84;-1.06
30949;HTU21D;17637;51.984;21.208;2022-07-23T22:27:18;19.83;-1.38
30949;HTU21D;17637;51.984;21.208;2022-07-23T22:32:23;19.91;-1.06
30949;HTU21D;17637;51.984;21.208;2022-07-23T22:37:27;19.89;-1.38
30949;HTU21D;17637;51.984;21.208;2022-07-23T22:42:29;19.94;-1.23
30949;HTU21D;17637;51.984;21.208;2022-07-23T22:47:34;19.90;-1.25
30949;HTU21D;17637;51.984;21.208;2022-07-23T22:52:37;19.86;-1.19
30949;HTU21D;17637;51.984;21.208;2022-07-23T22:57:40;19.90;-1.10
30949;HTU21D;17637;51.984;21.208;2022-07-23T23:02:45;19.84;-0.96
30949;HTU21D;17637;51.984;21.208;2022-07-23T23:07:49;19.84;-0.51
30949;HTU21D;17637;51.984;21.208;2022-07-23T23:12:52;19.80;-0.18
30949;HTU21D;17637;51.984;21.208;2022-07-23T23:17:57;19.87;-0.26
30949;HTU21D;17637;51.984;21.208;2022-07-23T23:23:00;19.85;-0.34
30949;HTU21D;17637;51.984;21.208;2022-07-23T23:28:03;20.00;-0.12
30949;HTU21D;17637;51.984;21.208;2022-07-23T23:33:07;20.01;-0.58
30949;HTU21D;17637;51.984;21.208;2022-07-23T23:38:11;20.07;-0.71
30949;HTU21D;17637;51.984;21.208;2022-07-23T23:43:14;20.07;-0.48
30949;HTU21D;17637;51.984;21.208;2022-07-23T23:48:18;19.99;-0.06
30949;HTU21D;17637;51.984;21.208;2022-07-23T23:53:21;19.97;0.04
30949;HTU21D;17637;51.984;21.208;2022-07-23T23:58:25;19.99;0.27
